CheckWX is a tool to help pilots better visualize weather data.  It is not intended as a substitute for an official pre-flight weather briefing.

07:59:53 UTC

FMMI TAF
Ivato Airport
Antananarivo, Madagascar
TAF FMMI 190500Z 1906/2012 10006KT 9999 FEW016 SCT020 BECMG 1909/1912 SCT020CB SCT023 PROB40 TEMPO 1914/1919 TS BECMG 1918/1921 FEW010 BKN020 PROB30 2002/2005 2000 BR

Mar-19@
06:00 UTC

Mar-19 @ 06:00 UTC

Mar-19@
09:00 UTC

Mar-19 @ 09:00 UTC

TAF FMMI 190500Z 1906/2012 10006KT 9999 FEW016 SCT020
Wind
  • 100° at 6 KTS
Cloud Levels
  • Few at 1,600' AGL
  • Scattered at 2,000' AGL

Mar-19@
09:00 UTC

Mar-19 @ 09:00 UTC

Mar-19@
18:00 UTC

Mar-19 @ 18:00 UTC

BECMG 1909/1912 SCT020CB SCT023

Becoming

Becoming Conditions expected by Tue, Mar 19, 2019 @ 12:00 UTC

Wind
  • 100° at 6 KTS
Cloud Levels
  • Scattered at 2,000' AGL
  • Scattered at 2,300' AGL

Mar-19@
14:00 UTC

Mar-19 @ 14:00 UTC

Mar-19@
19:00 UTC

Mar-19 @ 19:00 UTC

PROB40 TEMPO 1914/1919 TS

Temporary - 40% Likelihood

Temporary - 40% Likelihood during this time.

Conditions
Thunderstorm

Mar-19@
18:00 UTC

Mar-19 @ 18:00 UTC

Mar-20@
12:00 UTC

Mar-20 @ 12:00 UTC

BECMG 1918/1921 FEW010 BKN020

Becoming

Becoming Conditions expected by Tue, Mar 19, 2019 @ 21:00 UTC

Wind
  • 100° at 6 KTS
Cloud Levels
  • Few at 1,000' AGL
  • Broken at 2,000' AGL

Mar-20@
02:00 UTC

Mar-20 @ 02:00 UTC

Mar-20@
05:00 UTC

Mar-20 @ 05:00 UTC

PROB30 2002/2005 2000 BR

Probable - 30% Likelihood

Probable - 30% Likelihood during this time.

Conditions
Mist